Time,TemperatureF,DewpointF,PressureIn,WindDirection,WindDirectionDegrees,WindSpeedMPH,WindSpeedGustMPH,Humidity,HourlyPrecipIn,Conditions,Clouds,dailyrainin,SoftwareType,DateUTC
2013-03-11 03:36:00,38.8,35.9,29.59,South,180,6.0,6.0,89,0.00,,,0.00,WUHU21023XXSP,2013-03-11 08:36:00,
2013-03-11 03:42:00,39.0,36.3,29.59,South,180,0.0,7.0,90,0.00,,,0.00,WUHU21023XXSP,2013-03-11 08:42:00,
2013-03-11 03:53:00,39.0,36.3,29.59,SSW,202,0.0,7.0,90,0.00,,,0.00,WUHU21023XXSP,2013-03-11 08:53:00,
2013-03-11 03:59:00,39.0,36.0,29.60,SSW,202,6.0,7.0,89,0.00,,,0.00,WUHU21023XXSP,2013-03-11 08:59:00,
2013-03-11 04:08:00,38.8,35.9,29.60,SSW,202,0.0,6.0,89,0.00,,,0.00,WUHU21023XXSP,2013-03-11 09:08:00,
2013-03-11 04:14:00,38.5,35.5,29.60,SW,225,10.0,11.0,89,0.00,,,0.00,WUHU21023XXSP,2013-03-11 09:14:00,
2013-03-11 04:21:00,38.3,35.3,29.60,SSW,202,1.0,10.0,89,0.00,,,0.00,WUHU21023XXSP,2013-03-11 09:21:00,
2013-03-11 04:27:00,38.1,35.1,29.60,SW,225,0.0,1.0,89,0.00,,,0.00,WUHU21023XXSP,2013-03-11 09:27:00,
2013-03-11 04:38:00,37.8,34.8,29.59,SSW,202,7.0,7.0,89,0.00,,,0.00,WUHU21023XXSP,2013-03-11 09:38:00,
2013-03-11 04:44:00,37.6,34.6,29.59,SSW,202,0.0,7.0,89,0.00,,,0.00,WUHU21023XXSP,2013-03-11 09:44:00,
2013-03-11 04:53:00,37.2,34.2,29.59,SW,225,0.0,4.0,89,0.00,,,0.00,WUHU21023XXSP,2013-03-11 09:53:00,
2013-03-11 04:59:00,37.0,34.2,29.59,SSW,202,2.0,3.0,89,0.00,,,0.00,WUHU21023XXSP,2013-03-11 09:59:00,
2013-03-11 05:08:00,36.9,33.9,29.59,SSW,202,1.0,2.0,89,0.00,,,0.00,WUHU21023XXSP,2013-03-11 10:08:00,
2013-03-11 05:14:00,36.5,33.5,29.59,SW,225,0.0,1.0,89,0.00,,,0.00,WUHU21023XXSP,2013-03-11 10:14:00,
2013-03-11 05:27:00,36.3,33.3,29.58,SW,225,0.0,0.0,89,0.00,,,0.00,WUHU21023XXSP,2013-03-11 10:27:00,
2013-03-11 05:33:00,36.1,33.2,29.58,SW,225,0.0,0.0,89,0.00,,,0.00,WUHU21023XXSP,2013-03-11 10:33:00,
2013-03-11 05:40:00,36.0,33.0,29.58,SW,225,0.0,0.0,89,0.00,,,0.00,WUHU21023XXSP,2013-03-11 10:40:00,
2013-03-11 05:46:00,35.8,33.0,29.58,SW,225,0.0,0.0,89,0.00,,,0.00,WUHU21023XXSP,2013-03-11 10:46:00,
2013-03-11 05:53:00,35.8,32.8,29.57,SW,225,0.0,0.0,89,0.00,,,0.00,WUHU21023XXSP,2013-03-11 10:53:00,
2013-03-11 05:59:00,35.8,32.8,29.57,SW,225,0.0,0.0,89,0.00,,,0.00,WUHU21023XXSP,2013-03-11 10:59:00,
2013-03-11 06:05:00,35.4,32.4,29.58,West,270,0.0,0.0,89,0.00,,,0.00,WUHU21023XXSP,2013-03-11 11:05:00,
2013-03-11 06:12:00,35.4,32.4,29.58,WNW,292,0.0,0.0,89,0.00,,,0.00,WUHU21023XXSP,2013-03-11 11:12:00,
2013-03-11 06:18:00,35.2,32.3,29.59,WNW,292,0.0,0.0,89,0.00,,,0.00,WUHU21023XXSP,2013-03-11 11:18:00,
2013-03-11 06:25:00,35.2,32.3,29.60,WNW,292,0.0,0.0,89,0.00,,,0.00,WUHU21023XXSP,2013-03-11 11:25:00,
2013-03-11 06:31:00,35.1,32.1,29.61,West,270,0.0,0.0,89,0.00,,,0.00,WUHU21023XXSP,2013-03-11 11:31:00,
2013-03-11 06:38:00,34.9,31.9,29.61,WNW,292,0.0,0.0,89,0.00,,,0.00,WUHU21023XXSP,2013-03-11 11:38:00,
2013-03-11 06:44:00,34.7,31.7,29.62,West,270,0.0,0.0,89,0.00,,,0.00,WUHU21023XXSP,2013-03-11 11:44:00,
2013-03-11 06:50:00,34.3,31.6,29.62,West,270,0.0,0.0,90,0.00,,,0.00,WUHU21023XXSP,2013-03-11 11:50:00,
2013-03-11 06:57:00,34.3,31.6,29.63,West,270,0.0,0.0,90,0.00,,,0.00,WUHU21023XXSP,2013-03-11 11:57:00,
2013-03-11 07:03:00,34.3,31.6,29.63,West,270,0.0,0.0,90,0.00,,,0.00,WUHU21023XXSP,2013-03-11 12:03:00,
2013-03-11 07:10:00,34.3,31.6,29.63,West,270,0.0,0.0,90,0.00,,,0.00,WUHU21023XXSP,2013-03-11 12:10:00,
2013-03-11 07:18:00,34.2,31.2,29.64,West,270,0.0,0.0,89,0.00,,,0.00,WUHU21023XXSP,2013-03-11 12:18:00,
2013-03-11 07:27:00,34.2,31.2,29.63,West,270,0.0,0.0,89,0.00,,,0.00,WUHU21023XXSP,2013-03-11 12:27:00,
2013-03-11 07:33:00,34.0,31.0,29.63,WNW,292,0.0,0.0,89,0.00,,,0.00,WUHU21023XXSP,2013-03-11 12:33:00,
2013-03-11 07:40:00,34.0,31.0,29.63,WNW,292,0.0,0.0,89,0.00,,,0.00,WUHU21023XXSP,2013-03-11 12:40:00,
2013-03-11 07:48:00,33.8,30.8,29.62,WNW,292,0.0,0.0,89,0.00,,,0.00,WUHU21023XXSP,2013-03-11 12:48:00,
2013-03-11 07:55:00,33.8,30.8,29.62,WNW,292,0.0,0.0,89,0.00,,,0.00,WUHU21023XXSP,2013-03-11 12:55:00,
2013-03-11 08:01:00,33.6,30.6,29.62,WNW,292,0.0,0.0,89,0.00,,,0.00,WUHU21023XXSP,2013-03-11 13:01:00,
2013-03-11 08:08:00,33.6,30.6,29.61,WNW,292,0.0,0.0,89,0.00,,,0.00,WUHU21023XXSP,2013-03-11 13:08:00,
2013-03-11 08:14:00,33.6,30.6,29.61,WNW,292,0.0,0.0,89,0.00,,,0.00,WUHU21023XXSP,2013-03-11 13:14:00,
2013-03-11 08:20:00,33.6,30.6,29.62,WNW,292,0.0,0.0,89,0.00,,,0.00,WUHU21023XXSP,2013-03-11 13:20:00,
2013-03-11 08:29:00,33.6,30.6,29.62,WNW,292,0.0,0.0,89,0.00,,,0.00,WUHU21023XXSP,2013-03-11 13:29:00,
2013-03-11 08:35:00,33.6,30.6,29.62,WNW,292,0.0,0.0,89,0.00,,,0.00,WUHU21023XXSP,2013-03-11 13:35:00,
2013-03-11 08:44:00,33.6,30.6,29.62,WNW,292,0.0,0.0,89,0.00,,,0.00,WUHU21023XXSP,2013-03-11 13:44:00,
2013-03-11 09:12:00,34.0,31.0,29.61,WNW,292,0.0,0.0,89,0.00,,,0.00,WUHU21023XXSP,2013-03-11 14:12:00,
2013-03-11 09:23:00,34.0,31.0,29.61,WNW,292,0.0,0.0,89,0.00,,,0.00,WUHU21023XXSP,2013-03-11 14:23:00,
2013-03-11 09:35:00,34.0,31.0,29.59,WNW,292,0.0,0.0,89,0.00,,,0.00,WUHU21023XXSP,2013-03-11 14:35:00,
2013-03-11 09:55:00,34.3,31.6,29.59,WNW,292,0.0,0.0,90,0.00,,,0.00,WUHU21023XXSP,2013-03-11 14:55:00,
2013-03-11 10:01:00,34.3,31.6,29.59,WNW,292,0.0,0.0,90,0.00,,,0.00,WUHU21023XXSP,2013-03-11 15:01:00,
2013-03-11 10:22:00,34.3,31.6,29.59,WNW,292,0.0,0.0,90,0.00,,,0.00,WUHU21023XXSP,2013-03-11 15:22:00,
2013-03-11 10:29:00,34.3,31.6,29.59,WNW,292,0.0,0.0,90,0.00,,,0.00,WUHU21023XXSP,2013-03-11 15:29:00,
2013-03-11 10:37:00,34.3,31.4,29.59,WNW,292,0.0,0.0,89,0.00,,,0.00,WUHU21023XXSP,2013-03-11 15:37:00,
2013-03-11 10:46:00,34.3,31.6,29.58,WNW,292,0.0,0.0,90,0.00,,,0.00,WUHU21023XXSP,2013-03-11 15:46:00,
2013-03-11 10:53:00,34.3,31.6,29.59,WNW,292,0.0,0.0,90,0.00,,,0.00,WUHU21023XXSP,2013-03-11 15:53:00,
2013-03-11 10:59:00,34.3,31.6,29.59,WNW,292,0.0,0.0,90,0.00,,,0.00,WUHU21023XXSP,2013-03-11 15:59:00,
2013-03-11 11:08:00,34.3,31.6,29.58,WNW,292,0.0,0.0,90,0.00,,,0.00,WUHU21023XXSP,2013-03-11 16:08:00,
2013-03-11 11:14:00,34.3,31.6,29.58,WNW,292,0.0,0.0,90,0.00,,,0.00,WUHU21023XXSP,2013-03-11 16:14:00,
2013-03-11 11:20:00,34.3,31.6,29.57,WNW,292,0.0,0.0,90,0.00,,,0.00,WUHU21023XXSP,2013-03-11 16:20:00,
2013-03-11 11:27:00,34.5,31.8,29.57,WNW,292,0.0,0.0,90,0.00,,,0.00,WUHU21023XXSP,2013-03-11 16:27:00,
2013-03-11 11:35:00,34.9,32.2,29.57,NW,315,0.0,0.0,90,0.00,,,0.00,WUHU21023XXSP,2013-03-11 16:35:00,
2013-03-11 11:42:00,34.9,32.2,29.56,NW,315,0.0,0.0,90,0.00,,,0.00,WUHU21023XXSP,2013-03-11 16:42:00,
2013-03-11 11:48:00,35.2,32.5,29.56,NW,315,0.0,0.0,90,0.00,,,0.00,WUHU21023XXSP,2013-03-11 16:48:00,
2013-03-11 12:33:00,34.9,32.2,29.57,WNW,292,0.0,0.0,90,0.00,,,0.00,WUHU21023XXSP,2013-03-11 17:33:00,
2013-03-11 12:44:00,34.9,32.2,29.57,West,270,0.0,0.0,90,0.00,,,0.00,WUHU21023XXSP,2013-03-11 17:44:00,
2013-03-11 12:50:00,34.9,32.2,29.57,West,270,0.0,0.0,90,0.00,,,0.00,WUHU21023XXSP,2013-03-11 17:50:00,
2013-03-11 12:59:00,34.7,32.0,29.57,West,270,0.0,0.0,90,0.00,,,0.00,WUHU21023XXSP,2013-03-11 17:59:00,
2013-03-11 13:40:00,34.3,31.6,29.56,WNW,292,0.0,0.0,90,0.00,,,0.00,WUHU21023XXSP,2013-03-11 18:40:00,
2013-03-11 13:55:00,34.3,31.4,29.56,WNW,292,0.0,0.0,89,0.00,,,0.00,WUHU21023XXSP,2013-03-11 18:55:00,
2013-03-11 14:07:00,34.2,31.2,29.56,WNW,292,0.0,0.0,89,0.00,,,0.00,WUHU21023XXSP,2013-03-11 19:07:00,
2013-03-11 14:29:00,34.0,31.0,29.54,West,270,0.0,0.0,89,0.00,,,0.00,WUHU21023XXSP,2013-03-11 19:29:00,
2013-03-11 14:35:00,33.8,30.8,29.54,WNW,292,0.0,0.0,89,0.00,,,0.00,WUHU21023XXSP,2013-03-11 19:35:00,
2013-03-11 14:44:00,33.8,30.8,29.54,West,270,0.0,1.0,89,0.00,,,0.00,WUHU21023XXSP,2013-03-11 19:44:00,
2013-03-11 14:50:00,33.8,30.8,29.55,WNW,292,0.0,0.0,89,0.00,,,0.00,WUHU21023XXSP,2013-03-11 19:50:00,
2013-03-11 14:59:00,33.6,30.6,29.55,West,270,3.0,3.0,89,0.00,,,0.00,WUHU21023XXSP,2013-03-11 19:59:00,
2013-03-11 15:07:00,33.6,30.6,29.55,West,270,0.0,3.0,89,0.00,,,0.00,WUHU21023XXSP,2013-03-11 20:07:00,
2013-03-11 15:20:00,33.6,30.6,29.55,WNW,292,2.0,4.0,89,0.00,,,0.00,WUHU21023XXSP,2013-03-11 20:20:00,
2013-03-11 15:33:00,33.4,30.5,29.56,WNW,292,8.0,8.0,89,0.00,,,0.00,WUHU21023XXSP,2013-03-11 20:33:00,
2013-03-11 15:42:00,33.4,30.5,29.55,WNW,292,0.0,8.0,89,0.00,,,0.00,WUHU21023XXSP,2013-03-11 20:42:00,
2013-03-11 15:48:00,33.4,30.5,29.56,WNW,292,0.0,0.0,89,0.00,,,0.00,WUHU21023XXSP,2013-03-11 20:48:00,
2013-03-11 15:54:00,33.4,30.5,29.56,NW,315,2.0,2.0,89,0.00,,,0.00,WUHU21023XXSP,2013-03-11 20:54:00,
2013-03-11 16:01:00,33.4,30.5,29.56,West,270,0.0,2.0,89,0.00,,,0.00,WUHU21023XXSP,2013-03-11 21:01:00,
2013-03-11 16:07:00,33.4,30.5,29.57,West,270,0.0,5.0,89,0.00,,,0.00,WUHU21023XXSP,2013-03-11 21:07:00,
2013-03-11 16:18:00,33.3,30.3,29.57,West,270,0.0,3.0,89,0.00,,,0.00,WUHU21023XXSP,2013-03-11 21:18:00,
2013-03-11 16:24:00,33.4,30.5,29.57,West,270,0.0,1.0,89,0.00,,,0.00,WUHU21023XXSP,2013-03-11 21:24:00,
2013-03-11 16:31:00,33.3,30.3,29.57,WNW,292,0.0,6.0,89,0.00,,,0.00,WUHU21023XXSP,2013-03-11 21:31:00,
2013-03-11 16:37:00,33.3,30.3,29.57,WNW,292,4.0,4.0,89,0.00,,,0.00,WUHU21023XXSP,2013-03-11 21:37:00,
2013-03-11 16:44:00,33.3,30.3,29.57,WNW,292,4.0,4.0,89,0.00,,,0.00,WUHU21023XXSP,2013-03-11 21:44:00,
2013-03-11 16:50:00,33.4,30.5,29.57,West,270,3.0,4.0,89,0.00,,,0.00,WUHU21023XXSP,2013-03-11 21:50:00,
2013-03-11 16:57:00,33.4,30.5,29.57,West,270,2.0,3.0,89,0.00,,,0.00,WUHU21023XXSP,2013-03-11 21:57:00,
2013-03-11 17:03:00,33.4,30.5,29.58,West,270,0.0,2.0,89,0.00,,,0.00,WUHU21023XXSP,2013-03-11 22:03:00,
2013-03-11 17:09:00,33.4,30.5,29.58,WNW,292,2.0,5.0,89,0.00,,,0.00,WUHU21023XXSP,2013-03-11 22:09:00,
2013-03-11 17:16:00,33.3,30.3,29.59,WNW,292,0.0,2.0,89,0.00,,,0.00,WUHU21023XXSP,2013-03-11 22:16:00,
2013-03-11 17:22:00,33.3,30.3,29.59,WNW,292,0.0,6.0,89,0.00,,,0.00,WUHU21023XXSP,2013-03-11 22:22:00,
2013-03-11 17:29:00,33.3,30.3,29.60,West,270,0.0,2.0,89,0.00,,,0.00,WUHU21023XXSP,2013-03-11 22:29:00,
2013-03-11 17:35:00,33.1,30.2,29.60,West,270,0.0,0.0,89,0.00,,,0.00,WUHU21023XXSP,2013-03-11 22:35:00,
2013-03-11 17:42:00,33.1,30.2,29.61,West,270,2.0,2.0,89,0.00,,,0.00,WUHU21023XXSP,2013-03-11 22:42:00,
2013-03-11 17:48:00,33.1,30.2,29.60,West,270,0.0,2.0,89,0.00,,,0.00,WUHU21023XXSP,2013-03-11 22:48:00,
2013-03-11 17:59:00,33.1,30.2,29.61,NW,315,3.0,3.0,89,0.00,,,0.00,WUHU21023XXSP,2013-03-11 22:59:00,
2013-03-11 18:09:00,33.1,30.2,29.62,West,270,1.0,1.0,89,0.00,,,0.00,WUHU21023XXSP,2013-03-11 23:09:00,
2013-03-11 18:16:00,33.1,30.2,29.62,West,270,0.0,1.0,89,0.00,,,0.00,WUHU21023XXSP,2013-03-11 23:16:00,
2013-03-11 18:24:00,33.1,30.2,29.62,West,270,0.0,4.0,89,0.00,,,0.00,WUHU21023XXSP,2013-03-11 23:24:00,
2013-03-11 18:35:00,32.9,30.0,29.63,West,270,0.0,0.0,89,0.00,,,0.00,WUHU21023XXSP,2013-03-11 23:35:00,
2013-03-11 18:41:00,32.9,30.0,29.63,West,270,0.0,0.0,89,0.00,,,0.00,WUHU21023XXSP,2013-03-11 23:41:00,
2013-03-11 18:48:00,32.9,30.0,29.64,West,270,2.0,2.0,89,0.00,,,0.00,WUHU21023XXSP,2013-03-11 23:48:00,
2013-03-11 19:12:00,32.7,29.8,29.65,WNW,292,0.0,6.0,89,0.00,,,0.00,WUHU21023XXSP,2013-03-12 00:12:00,
2013-03-11 19:20:00,32.7,29.8,29.65,WNW,292,0.0,7.0,89,0.00,,,0.00,WUHU21023XXSP,2013-03-12 00:20:00,
2013-03-11 19:31:00,32.5,29.7,29.65,WNW,292,1.0,1.0,89,0.00,,,0.00,WUHU21023XXSP,2013-03-12 00:31:00,
2013-03-11 19:46:00,32.5,29.5,29.66,WNW,292,3.0,7.0,89,0.00,,,0.00,WUHU21023XXSP,2013-03-12 00:46:00,
2013-03-11 19:54:00,32.4,29.5,29.67,West,270,1.0,3.0,89,0.00,,,0.00,WUHU21023XXSP,2013-03-12 00:54:00,
2013-03-11 20:01:00,32.4,29.5,29.68,West,270,0.0,1.0,89,0.00,,,0.00,WUHU21023XXSP,2013-03-12 01:01:00,
2013-03-11 20:16:00,32.2,29.4,29.68,West,270,0.0,4.0,89,0.00,,,0.00,WUHU21023XXSP,2013-03-12 01:16:00,
2013-03-11 20:22:00,32.2,29.1,29.68,West,270,5.0,5.0,88,0.00,,,0.00,WUHU21023XXSP,2013-03-12 01:22:00,
2013-03-11 20:33:00,32.0,28.9,29.68,West,270,0.0,3.0,88,0.00,,,0.00,WUHU21023XXSP,2013-03-12 01:33:00,
2013-03-11 20:52:00,31.8,28.7,29.70,West,270,3.0,7.0,88,0.00,,,0.00,WUHU21023XXSP,2013-03-12 01:52:00,
2013-03-11 21:03:00,31.6,28.5,29.70,West,270,3.0,7.0,88,0.00,,,0.00,WUHU21023XXSP,2013-03-12 02:03:00,
2013-03-11 21:09:00,31.6,28.5,29.70,West,270,0.0,5.0,88,0.00,,,0.00,WUHU21023XXSP,2013-03-12 02:09:00,
2013-03-11 21:24:00,31.6,28.3,29.70,West,270,3.0,5.0,87,0.00,,,0.00,WUHU21023XXSP,2013-03-12 02:24:00,
2013-03-11 21:39:00,31.6,28.3,29.71,West,270,3.0,3.0,87,0.00,,,0.00,WUHU21023XXSP,2013-03-12 02:39:00,
2013-03-11 21:54:00,31.3,27.9,29.71,West,270,3.0,4.0,87,0.00,,,0.00,WUHU21023XXSP,2013-03-12 02:54:00,
2013-03-11 22:05:00,31.3,27.9,29.72,West,270,5.0,6.0,87,0.00,,,0.00,WUHU21023XXSP,2013-03-12 03:05:00,
2013-03-11 22:33:00,31.1,27.4,29.73,West,270,3.0,4.0,86,0.00,,,0.00,WUHU21023XXSP,2013-03-12 03:33:00,
2013-03-11 22:54:00,31.1,27.4,29.73,West,270,7.0,7.0,86,0.00,,,0.00,WUHU21023XXSP,2013-03-12 03:54:00,